Sakai-Minato, Japan
Current Conditions -  °F | °C
As of 1:00 PM on Sunday 26 Oct 2014 (Local Time) from RJOH Reporting Station
Few Clouds Few Clouds  
Wind Chill: 79°   Ceiling: Unl
Heat Index: 79°   Visibility: 6mi
Dew Point: 55°   Wind: 12mph
Humidity: 44%   Direction: 260°W
Pressure: 30"   Gusts: NA
Location:  35.53°N, 133.24°E
Report Text: RJOH 260400Z 26010KT 9999 FEW040 26/13 Q1016
Loading
Personal Weather Stations






























Interactive Weather Map
Tropical Storm Tracking
New forecast layout! Learn more

10-Day Weather Forecast

Advertisements
Track Severe Weather on mobile